createdAt,value
2016-08-05T00:00:17.387Z,1006.91
2016-08-05T00:01:17.373Z,1006.87
2016-08-05T00:02:17.357Z,1006.84
2016-08-05T00:03:17.345Z,1006.87
2016-08-05T00:04:17.327Z,1006.9
2016-08-05T00:05:17.310Z,1006.91
2016-08-05T00:06:17.294Z,1006.87
2016-08-05T00:07:17.277Z,1006.86
2016-08-05T00:08:17.262Z,1006.87
2016-08-05T00:09:17.247Z,1006.85
2016-08-05T00:10:17.230Z,1006.85
2016-08-05T00:11:17.215Z,1006.84
2016-08-05T00:12:17.200Z,1006.81
2016-08-05T00:13:17.184Z,1006.85
2016-08-05T00:14:17.170Z,1006.83
2016-08-05T00:15:17.155Z,1006.81
2016-08-05T00:16:17.138Z,1006.82
2016-08-05T00:17:17.123Z,1006.76
2016-08-05T00:18:17.107Z,1006.72
2016-08-05T00:19:17.092Z,1006.74
2016-08-05T00:20:17.079Z,1006.71
2016-08-05T00:21:17.058Z,1006.71
2016-08-05T00:22:17.043Z,1006.71
2016-08-05T00:23:17.027Z,1006.71
2016-08-05T00:24:17.015Z,1006.72
2016-08-05T00:26:16.980Z,1006.76
2016-08-05T00:27:16.965Z,1006.77
2016-08-05T00:28:16.951Z,1006.75
2016-08-05T00:29:16.934Z,1006.78
2016-08-05T00:30:16.920Z,1006.79
2016-08-05T00:31:16.906Z,1006.81
2016-08-05T00:32:16.890Z,1006.86
2016-08-05T00:33:16.875Z,1006.89
2016-08-05T00:34:16.863Z,1006.95
2016-08-05T00:35:16.842Z,1006.99
2016-08-05T00:36:16.828Z,1007.03
2016-08-05T00:37:16.813Z,1007.07
2016-08-05T00:38:16.796Z,1007.11
2016-08-05T00:39:16.780Z,1007.09
2016-08-05T00:41:16.752Z,1007.17
2016-08-05T00:42:16.735Z,1007.2
2016-08-05T00:43:16.723Z,1007.21
2016-08-05T00:44:16.703Z,1007.22
2016-08-05T00:45:16.692Z,1007.24
2016-08-05T00:46:16.672Z,1007.25
2016-08-05T00:47:16.651Z,1007.33
2016-08-05T00:48:16.642Z,1007.31
2016-08-05T00:49:16.625Z,1007.32
2016-08-05T00:50:16.613Z,1007.31
2016-08-05T00:51:16.590Z,1007.32
2016-08-05T00:52:16.579Z,1007.27
2016-08-05T00:53:16.564Z,1007.34
2016-08-05T00:54:16.547Z,1007.24
2016-08-05T00:56:16.515Z,1007.3
2016-08-05T00:57:16.500Z,1007.3
2016-08-05T00:58:16.483Z,1007.23
2016-08-05T00:59:16.468Z,1007.2
2016-08-05T01:00:16.453Z,1007.19
2016-08-05T01:01:16.439Z,1007.14
2016-08-05T01:02:16.423Z,1007.21
2016-08-05T01:03:16.405Z,1007.17
2016-08-05T01:04:16.394Z,1007.26
2016-08-05T01:05:16.376Z,1007.23
2016-08-05T01:06:16.361Z,1007.21
2016-08-05T01:07:16.341Z,1007.28
2016-08-05T01:08:16.328Z,1007.3
2016-08-05T01:09:16.314Z,1007.27
2016-08-05T01:11:16.280Z,1007.29
2016-08-05T01:12:16.269Z,1007.29
2016-08-05T01:13:16.253Z,1007.29
2016-08-05T01:14:16.237Z,1007.32
2016-08-05T01:15:16.223Z,1007.29
2016-08-05T01:16:16.206Z,1007.27
2016-08-05T01:17:16.191Z,1007.22
2016-08-05T01:18:16.173Z,1007.22
2016-08-05T01:19:16.157Z,1007.21
2016-08-05T01:20:16.144Z,1007.29
2016-08-05T01:21:16.126Z,1007.27
2016-08-05T01:22:16.113Z,1007.29
2016-08-05T01:23:16.098Z,1007.3
2016-08-05T01:24:16.083Z,1007.25
2016-08-05T01:25:16.067Z,1007.32
2016-08-05T01:26:16.050Z,1007.34
2016-08-05T01:27:16.035Z,1007.33
2016-08-05T01:28:16.018Z,1007.3
2016-08-05T01:29:16.004Z,1007.32
2016-08-05T01:30:15.988Z,1007.26
2016-08-05T01:31:15.974Z,1007.3
2016-08-05T01:32:15.957Z,1007.34
2016-08-05T01:33:15.943Z,1007.29
2016-08-05T01:34:15.927Z,1007.29
2016-08-05T01:35:15.914Z,1007.31
2016-08-05T01:36:15.894Z,1007.25
2016-08-05T01:37:15.879Z,1007.29
2016-08-05T01:38:15.861Z,1007.28
2016-08-05T01:39:15.853Z,1007.27
2016-08-05T01:40:15.833Z,1007.29
2016-08-05T01:41:15.818Z,1007.29
2016-08-05T01:42:15.801Z,1007.29
2016-08-05T01:43:15.790Z,1007.28
2016-08-05T01:44:15.770Z,1007.3
2016-08-05T01:45:15.760Z,1007.29
2016-08-05T01:46:15.741Z,1007.31
2016-08-05T01:47:15.728Z,1007.32
2016-08-05T01:48:15.709Z,1007.37
2016-08-05T01:49:15.694Z,1007.39
2016-08-05T01:50:15.679Z,1007.4
2016-08-05T01:51:15.661Z,1007.37
2016-08-05T01:52:15.648Z,1007.4
2016-08-05T01:53:15.632Z,1007.36
2016-08-05T01:54:15.616Z,1007.32
2016-08-05T01:55:15.600Z,1007.29
2016-08-05T01:56:15.587Z,1007.3
2016-08-05T01:57:15.571Z,1007.28
2016-08-05T01:58:15.555Z,1007.33
2016-08-05T01:59:15.537Z,1007.33
2016-08-05T02:00:15.526Z,1007.34
2016-08-05T02:01:15.508Z,1007.28
2016-08-05T02:02:15.493Z,1007.27
2016-08-05T02:03:15.478Z,1007.21
2016-08-05T02:04:15.467Z,1007.18
2016-08-05T02:05:15.447Z,1007.15
2016-08-05T02:06:15.437Z,1007.21
2016-08-05T02:07:15.417Z,1007.19
2016-08-05T02:08:15.402Z,1007.19
2016-08-05T02:09:15.384Z,1007.26
2016-08-05T02:10:15.370Z,1007.24
2016-08-05T02:11:15.352Z,1007.28
2016-08-05T02:12:15.336Z,1007.27
2016-08-05T02:13:15.323Z,1007.27
2016-08-05T02:14:15.309Z,1007.23
2016-08-05T02:15:15.293Z,1007.3
2016-08-05T02:16:15.274Z,1007.25
2016-08-05T02:17:15.263Z,1007.28
2016-08-05T02:18:15.243Z,1007.34
2016-08-05T02:19:15.233Z,1007.35
2016-08-05T02:20:15.215Z,1007.39
2016-08-05T02:21:15.201Z,1007.39
2016-08-05T02:22:15.183Z,1007.45
2016-08-05T02:23:15.169Z,1007.45
2016-08-05T02:24:15.152Z,1007.53
2016-08-05T02:25:15.136Z,1007.5
2016-08-05T02:26:15.127Z,1007.49
2016-08-05T02:27:15.108Z,1007.51
2016-08-05T02:28:15.092Z,1007.49
2016-08-05T02:29:15.078Z,1007.51
2016-08-05T02:30:15.057Z,1007.5
2016-08-05T02:31:15.046Z,1007.55
2016-08-05T02:32:15.029Z,1007.55
2016-08-05T02:33:15.018Z,1007.58
2016-08-05T02:34:14.998Z,1007.53
2016-08-05T02:35:14.980Z,1007.57
2016-08-05T02:36:14.965Z,1007.54
2016-08-05T02:37:14.951Z,1007.49
2016-08-05T02:38:14.935Z,1007.46
2016-08-05T02:39:14.924Z,1007.46
2016-08-05T02:40:14.904Z,1007.42
2016-08-05T02:41:14.889Z,1007.49
2016-08-05T02:42:14.873Z,1007.54
2016-08-05T02:43:14.856Z,1007.49
2016-08-05T02:44:14.840Z,1007.6
2016-08-05T02:45:14.835Z,1007.64
2016-08-05T02:46:14.812Z,1007.63
2016-08-05T02:47:14.795Z,1007.65
2016-08-05T02:48:14.780Z,1007.65
2016-08-05T02:49:14.764Z,1007.68
2016-08-05T02:50:14.756Z,1007.68
2016-08-05T02:51:14.734Z,1007.69
2016-08-05T02:52:14.719Z,1007.68
2016-08-05T02:53:14.699Z,1007.69
2016-08-05T02:54:14.688Z,1007.72
2016-08-05T02:55:14.670Z,1007.7
2016-08-05T02:56:14.659Z,1007.68
2016-08-05T02:57:14.647Z,1007.71
2016-08-05T02:58:14.629Z,1007.7
2016-08-05T02:59:14.609Z,1007.66
2016-08-05T03:00:14.595Z,1007.69
2016-08-05T03:01:14.577Z,1007.72
2016-08-05T03:02:14.562Z,1007.67
2016-08-05T03:03:14.547Z,1007.68
2016-08-05T03:04:14.535Z,1007.7
2016-08-05T03:05:14.516Z,1007.76
2016-08-05T03:06:14.499Z,1007.8
2016-08-05T03:07:14.489Z,1007.83
2016-08-05T03:08:14.473Z,1007.86
2016-08-05T03:09:14.453Z,1007.9
2016-08-05T03:10:14.438Z,1007.85
2016-08-05T03:11:14.422Z,1007.89
2016-08-05T03:12:14.403Z,1007.87
2016-08-05T03:13:14.390Z,1007.86
2016-08-05T03:14:14.378Z,1007.92
2016-08-05T03:15:14.360Z,1007.88
2016-08-05T03:16:14.346Z,1007.91
2016-08-05T03:17:14.332Z,1007.89
2016-08-05T03:18:14.311Z,1007.91
2016-08-05T03:19:14.298Z,1007.9
2016-08-05T03:20:14.282Z,1007.87
2016-08-05T03:21:14.267Z,1007.9
2016-08-05T03:22:14.247Z,1007.87
2016-08-05T03:23:14.233Z,1007.89
2016-08-05T03:24:14.219Z,1007.91
2016-08-05T03:25:14.206Z,1007.91
2016-08-05T03:26:14.189Z,1007.9
2016-08-05T03:27:14.174Z,1007.95
2016-08-05T03:28:14.159Z,1007.96
2016-08-05T03:29:14.142Z,1007.92
2016-08-05T03:30:14.126Z,1007.93
2016-08-05T03:31:14.112Z,1007.91
2016-08-05T03:32:14.101Z,1007.94
2016-08-05T03:33:14.079Z,1007.93
2016-08-05T03:34:14.063Z,1007.98
2016-08-05T03:35:14.047Z,1008.03
2016-08-05T03:36:14.036Z,1008.04
2016-08-05T03:37:14.018Z,1007.98
2016-08-05T03:38:14.003Z,1008.04
2016-08-05T03:39:13.988Z,1007.98
2016-08-05T03:40:13.972Z,1007.98
2016-08-05T03:41:13.956Z,1007.98
2016-08-05T03:42:13.947Z,1007.97
2016-08-05T03:43:13.925Z,1007.98
2016-08-05T03:44:13.909Z,1007.97
2016-08-05T03:45:13.894Z,1007.98
2016-08-05T03:46:13.881Z,1007.98
2016-08-05T03:47:13.861Z,1007.98
2016-08-05T03:48:13.845Z,1008.06
2016-08-05T03:49:13.832Z,1008.06
2016-08-05T03:50:13.816Z,1008.08
2016-08-05T03:51:13.800Z,1008.02
2016-08-05T03:52:13.783Z,1008.03
2016-08-05T03:53:13.769Z,1008.01
2016-08-05T03:54:13.754Z,1007.98
2016-08-05T03:55:13.737Z,1008.06
2016-08-05T03:56:13.724Z,1008.09
2016-08-05T03:57:13.708Z,1008.08
2016-08-05T03:58:13.693Z,1008.12
2016-08-05T03:59:13.675Z,1008.15
2016-08-05T04:00:13.661Z,1008.16
2016-08-05T04:01:13.647Z,1008.16
2016-08-05T04:02:13.628Z,1008.15
2016-08-05T04:03:13.613Z,1008.17
2016-08-05T04:04:13.596Z,1008.2
2016-08-05T04:05:13.584Z,1008.17
2016-08-05T04:06:13.568Z,1008.15
2016-08-05T04:07:13.552Z,1008.13
2016-08-05T04:08:13.536Z,1008.15
2016-08-05T04:09:13.525Z,1008.13
2016-08-05T04:10:13.504Z,1008.14
2016-08-05T04:11:13.489Z,1008.17
2016-08-05T04:12:13.474Z,1008.15
2016-08-05T04:13:13.459Z,1008.18
2016-08-05T04:14:13.444Z,1008.16
2016-08-05T04:15:13.428Z,1008.13
2016-08-05T04:16:13.413Z,1008.12
2016-08-05T04:17:13.397Z,1008.08
2016-08-05T04:18:13.380Z,1008.05
2016-08-05T04:19:13.364Z,1008.03
2016-08-05T04:20:13.355Z,1008.09
2016-08-05T04:21:13.333Z,1008.09
2016-08-05T04:22:13.318Z,1008.13
2016-08-05T04:23:13.301Z,1008.15
2016-08-05T04:24:13.286Z,1008.18
2016-08-05T04:25:13.271Z,1008.17
2016-08-05T04:26:13.256Z,1008.17
2016-08-05T04:27:13.246Z,1008.16
2016-08-05T04:28:13.225Z,1008.16
2016-08-05T04:29:13.209Z,1008.19
2016-08-05T04:30:13.196Z,1008.2
2016-08-05T04:31:13.178Z,1008.16
2016-08-05T04:32:13.164Z,1008.21
2016-08-05T04:33:13.146Z,1008.22
2016-08-05T04:34:13.141Z,1008.22
2016-08-05T04:35:13.115Z,1008.22
2016-08-05T04:36:13.099Z,1008.24
2016-08-05T04:37:13.085Z,1008.26
2016-08-05T04:38:13.070Z,1008.28
2016-08-05T04:39:13.052Z,1008.24
2016-08-05T04:40:13.041Z,1008.28
2016-08-05T04:41:13.021Z,1008.19
2016-08-05T04:42:13.006Z,1008.22
2016-08-05T04:43:12.991Z,1008.24
2016-08-05T04:44:12.980Z,1008.29
2016-08-05T04:45:12.960Z,1008.32
2016-08-05T04:46:12.944Z,1008.32
2016-08-05T04:47:12.926Z,1008.39
2016-08-05T04:48:12.913Z,1008.38
2016-08-05T04:49:12.898Z,1008.42
2016-08-05T04:50:12.878Z,1008.41
2016-08-05T04:51:12.866Z,1008.46
2016-08-05T04:52:12.850Z,1008.51
2016-08-05T04:53:12.837Z,1008.56
2016-08-05T04:54:12.824Z,1008.59
2016-08-05T04:55:12.805Z,1008.59
2016-08-05T04:56:12.789Z,1008.68
2016-08-05T04:57:12.771Z,1008.63
2016-08-05T04:58:12.756Z,1008.67
2016-08-05T04:59:12.741Z,1008.69
2016-08-05T05:00:12.727Z,1008.75
2016-08-05T05:01:12.711Z,1008.73
2016-08-05T05:02:12.694Z,1008.72
2016-08-05T05:03:12.678Z,1008.7
2016-08-05T05:04:12.663Z,1008.72
2016-08-05T05:05:12.651Z,1008.77
2016-08-05T05:06:12.633Z,1008.73
2016-08-05T05:07:12.619Z,1008.78
2016-08-05T05:08:12.601Z,1008.77
2016-08-05T05:09:12.585Z,1008.74
2016-08-05T05:10:12.568Z,1008.7
2016-08-05T05:11:12.554Z,1008.77
2016-08-05T05:12:12.539Z,1008.77
2016-08-05T05:13:12.522Z,1008.79
2016-08-05T05:14:12.507Z,1008.79
2016-08-05T05:15:12.495Z,1008.84
2016-08-05T05:16:12.478Z,1008.82
2016-08-05T05:17:12.460Z,1008.82
2016-08-05T05:18:12.448Z,1008.84
2016-08-05T05:19:12.429Z,1008.87
2016-08-05T05:20:12.418Z,1008.92
2016-08-05T05:21:12.398Z,1008.92
2016-08-05T05:22:12.385Z,1008.95
2016-08-05T05:23:12.369Z,1008.98
2016-08-05T05:24:12.357Z,1008.97
2016-08-05T05:25:12.337Z,1009
2016-08-05T05:26:12.321Z,1008.95
2016-08-05T05:27:12.305Z,1008.92
2016-08-05T05:28:12.291Z,1008.95
2016-08-05T05:29:12.274Z,1008.94
2016-08-05T05:30:12.257Z,1008.91
2016-08-05T05:31:12.240Z,1008.97
2016-08-05T05:32:12.225Z,1008.92
2016-08-05T05:33:12.211Z,1009
2016-08-05T05:34:12.196Z,1009.02
2016-08-05T05:35:12.184Z,1009.03
2016-08-05T05:36:12.167Z,1009.05
2016-08-05T05:37:12.148Z,1009.05
2016-08-05T05:38:12.134Z,1009.11
2016-08-05T05:39:12.117Z,1009.17
2016-08-05T05:40:12.103Z,1009.14
2016-08-05T05:41:12.088Z,1009.1
2016-08-05T05:42:12.072Z,1009.13
2016-08-05T05:43:12.054Z,1009.18
2016-08-05T05:44:12.042Z,1009.18
2016-08-05T05:45:12.030Z,1009.2
2016-08-05T05:46:12.008Z,1009.24
2016-08-05T05:47:11.998Z,1009.24
2016-08-05T05:48:11.977Z,1009.28
2016-08-05T05:49:11.973Z,1009.29
2016-08-05T05:50:11.947Z,1009.34
2016-08-05T05:51:11.933Z,1009.3
2016-08-05T05:52:11.916Z,1009.29
2016-08-05T05:53:11.905Z,1009.27
2016-08-05T05:54:11.884Z,1009.27
2016-08-05T05:55:11.870Z,1009.27
2016-08-05T05:56:11.854Z,1009.34
2016-08-05T05:57:11.855Z,1009.36
2016-08-05T05:58:11.822Z,1009.35
2016-08-05T05:59:11.805Z,1009.35
2016-08-05T06:00:11.790Z,1009.35
2016-08-05T06:01:11.777Z,1009.34
2016-08-05T06:02:11.760Z,1009.31
2016-08-05T06:03:11.745Z,1009.31
2016-08-05T06:04:11.730Z,1009.36
2016-08-05T06:05:11.715Z,1009.38
2016-08-05T06:06:11.702Z,1009.36
2016-08-05T06:07:11.682Z,1009.36
2016-08-05T06:08:11.680Z,1009.41
2016-08-05T06:09:11.655Z,1009.42
2016-08-05T06:10:11.637Z,1009.39
2016-08-05T06:12:11.604Z,1009.43
2016-08-05T06:13:11.588Z,1009.45
2016-08-05T06:14:11.575Z,1009.45
2016-08-05T06:15:11.558Z,1009.45
2016-08-05T06:16:11.542Z,1009.45
2016-08-05T06:17:11.526Z,1009.46
2016-08-05T06:18:11.512Z,1009.49
2016-08-05T06:19:11.495Z,1009.55
2016-08-05T06:20:11.479Z,1009.55
2016-08-05T06:21:11.461Z,1009.55
2016-08-05T06:22:11.448Z,1009.52
2016-08-05T06:23:11.433Z,1009.56
2016-08-05T06:24:11.415Z,1009.56
2016-08-05T06:25:11.404Z,1009.49
2016-08-05T06:26:11.385Z,1009.57
2016-08-05T06:27:11.369Z,1009.55
2016-08-05T06:28:11.355Z,1009.55
2016-08-05T06:29:11.337Z,1009.58
2016-08-05T06:30:11.323Z,1009.59
2016-08-05T06:31:11.306Z,1009.54
2016-08-05T06:32:11.292Z,1009.52
2016-08-05T06:33:11.282Z,1009.54
2016-08-05T06:34:11.260Z,1009.57
2016-08-05T06:35:11.248Z,1009.56
2016-08-05T06:36:11.228Z,1009.65
2016-08-05T06:37:11.218Z,1009.62
2016-08-05T06:38:11.199Z,1009.65
2016-08-05T06:39:11.187Z,1009.6
2016-08-05T06:40:11.166Z,1009.6
2016-08-05T06:41:11.151Z,1009.57
2016-08-05T06:42:11.135Z,1009.55
2016-08-05T06:43:11.122Z,1009.54
2016-08-05T06:44:11.104Z,1009.59
2016-08-05T06:45:11.087Z,1009.57
2016-08-05T06:46:11.075Z,1009.61
2016-08-05T06:47:11.057Z,1009.59
2016-08-05T06:48:11.043Z,1009.69
2016-08-05T06:49:11.026Z,1009.71
2016-08-05T06:50:11.013Z,1009.74
2016-08-05T06:51:10.994Z,1009.7
2016-08-05T06:52:10.983Z,1009.76
2016-08-05T06:53:10.965Z,1009.67
2016-08-05T06:54:10.949Z,1009.73
2016-08-05T06:55:10.938Z,1009.7
2016-08-05T06:56:10.923Z,1009.7
2016-08-05T06:57:10.908Z,1009.66
2016-08-05T06:58:10.889Z,1009.71
2016-08-05T06:59:10.869Z,1009.72
2016-08-05T07:00:10.854Z,1009.73
2016-08-05T07:01:10.839Z,1009.75
2016-08-05T07:02:10.822Z,1009.75
2016-08-05T07:03:10.810Z,1009.83
2016-08-05T07:04:10.792Z,1009.83
2016-08-05T07:05:10.776Z,1009.87
2016-08-05T07:06:10.758Z,1009.88
2016-08-05T07:07:10.744Z,1009.91
2016-08-05T07:08:10.727Z,1009.88
2016-08-05T07:09:10.715Z,1009.89
2016-08-05T07:10:10.699Z,1009.87
2016-08-05T07:11:10.685Z,1009.91
2016-08-05T07:12:10.665Z,1009.93
2016-08-05T07:13:10.655Z,1009.9
2016-08-05T07:14:10.639Z,1009.96
2016-08-05T07:15:10.626Z,1009.92
2016-08-05T07:16:10.604Z,1009.97
2016-08-05T07:17:10.591Z,1009.92
2016-08-05T07:18:10.573Z,1009.95
2016-08-05T07:19:10.560Z,1009.95
2016-08-05T07:20:10.542Z,1009.98
2016-08-05T07:21:10.524Z,1010
2016-08-05T07:22:10.509Z,1009.99
2016-08-05T07:23:10.496Z,1009.96
2016-08-05T07:24:10.480Z,1009.9
2016-08-05T07:25:10.463Z,1009.93
2016-08-05T07:26:10.450Z,1009.94
2016-08-05T07:27:10.428Z,1009.93
2016-08-05T07:28:10.417Z,1009.97
2016-08-05T07:29:10.405Z,1010.01
2016-08-05T07:30:10.387Z,1010.03
2016-08-05T07:31:10.370Z,1010.03
2016-08-05T07:32:10.354Z,1010.06
2016-08-05T07:33:10.347Z,1010.13
2016-08-05T07:34:10.323Z,1010.13
2016-08-05T07:35:10.307Z,1010.14
2016-08-05T07:36:10.303Z,1010.12
2016-08-05T07:37:10.275Z,1010.12
2016-08-05T07:38:10.257Z,1010.12
2016-08-05T07:39:10.243Z,1010.07
2016-08-05T07:40:10.231Z,1010.14
2016-08-05T07:41:10.212Z,1010.16
2016-08-05T07:42:10.195Z,1010.14
2016-08-05T07:43:10.181Z,1010.16
2016-08-05T07:44:10.164Z,1010.19
2016-08-05T07:45:10.147Z,1010.27
2016-08-05T07:46:10.132Z,1010.25
2016-08-05T07:47:10.115Z,1010.24
2016-08-05T07:48:10.101Z,1010.23
2016-08-05T07:49:10.085Z,1010.21
2016-08-05T07:50:10.069Z,1010.22
2016-08-05T07:51:10.052Z,1010.18
2016-08-05T07:52:10.036Z,1010.19
2016-08-05T07:53:10.022Z,1010.27
2016-08-05T07:54:10.003Z,1010.23
2016-08-05T07:55:09.992Z,1010.21
2016-08-05T07:56:09.972Z,1010.2
2016-08-05T07:57:09.955Z,1010.2
2016-08-05T07:58:09.942Z,1010.24
2016-08-05T07:59:09.921Z,1010.24
2016-08-05T08:00:09.910Z,1010.26
2016-08-05T08:01:09.896Z,1010.26
2016-08-05T08:02:09.873Z,1010.3
2016-08-05T08:03:09.861Z,1010.3
2016-08-05T08:04:09.844Z,1010.28
2016-08-05T08:05:09.837Z,1010.3
2016-08-05T08:06:09.820Z,1010.38
2016-08-05T08:07:09.793Z,1010.36
2016-08-05T08:08:09.778Z,1010.44
2016-08-05T08:09:09.763Z,1010.4
2016-08-05T08:10:09.748Z,1010.43
2016-08-05T08:11:09.732Z,1010.42
2016-08-05T08:12:09.726Z,1010.42
2016-08-05T08:13:09.700Z,1010.37
2016-08-05T08:14:09.686Z,1010.4
2016-08-05T08:15:09.669Z,1010.39
2016-08-05T08:16:09.654Z,1010.38
2016-08-05T08:17:09.635Z,1010.41
2016-08-05T08:18:09.622Z,1010.43
2016-08-05T08:19:09.609Z,1010.44
2016-08-05T08:20:09.588Z,1010.47
2016-08-05T08:21:09.574Z,1010.44
2016-08-05T08:22:09.558Z,1010.47
2016-08-05T08:23:09.541Z,1010.46
2016-08-05T08:24:09.529Z,1010.49
2016-08-05T08:25:09.521Z,1010.52
2016-08-05T08:26:09.496Z,1010.56
2016-08-05T08:27:09.478Z,1010.53
2016-08-05T08:28:09.465Z,1010.59
2016-08-05T08:29:09.448Z,1010.62
2016-08-05T08:30:09.433Z,1010.64
2016-08-05T08:31:09.416Z,1010.7
2016-08-05T08:32:09.399Z,1010.67
2016-08-05T08:33:09.385Z,1010.66
2016-08-05T08:34:09.368Z,1010.67
2016-08-05T08:35:09.352Z,1010.67
2016-08-05T08:36:09.340Z,1010.71
2016-08-05T08:37:09.320Z,1010.71
2016-08-05T08:38:09.304Z,1010.73
2016-08-05T08:39:09.289Z,1010.69
2016-08-05T08:40:09.275Z,1010.75
2016-08-05T08:41:09.255Z,1010.77
2016-08-05T08:42:09.242Z,1010.76
2016-08-05T08:43:09.226Z,1010.82
2016-08-05T08:44:09.210Z,1010.83
2016-08-05T08:45:09.194Z,1010.86
2016-08-05T08:46:09.177Z,1010.89
2016-08-05T08:47:09.160Z,1010.86
2016-08-05T08:48:09.145Z,1010.9
2016-08-05T08:49:09.136Z,1010.92
2016-08-05T08:50:09.117Z,1010.88
2016-08-05T08:51:09.097Z,1010.93
2016-08-05T08:52:09.082Z,1011
2016-08-05T08:53:09.068Z,1010.96
2016-08-05T08:54:09.050Z,1011
2016-08-05T08:55:09.041Z,1011.01
2016-08-05T08:56:09.021Z,1011.05
2016-08-05T08:57:09.006Z,1011.08
2016-08-05T08:58:08.990Z,1011.06
2016-08-05T08:59:08.972Z,1011.07
2016-08-05T09:00:08.954Z,1011.09
2016-08-05T09:01:08.940Z,1011.09
2016-08-05T09:02:08.925Z,1011.1
2016-08-05T09:03:08.907Z,1011.11
2016-08-05T09:04:08.897Z,1011.17
2016-08-05T09:05:08.878Z,1011.12
2016-08-05T09:06:08.863Z,1011.09
2016-08-05T09:07:08.845Z,1011.05
2016-08-05T09:08:08.832Z,1011.12
2016-08-05T09:09:08.814Z,1011.12
2016-08-05T09:10:08.800Z,1011.18
2016-08-05T09:11:08.784Z,1011.18
2016-08-05T09:12:08.768Z,1011.2
2016-08-05T09:13:08.751Z,1011.16
2016-08-05T09:14:08.736Z,1011.16
2016-08-05T09:15:08.721Z,1011.22
2016-08-05T09:16:08.706Z,1011.19
2016-08-05T09:17:08.689Z,1011.23
2016-08-05T09:18:08.672Z,1011.24
2016-08-05T09:19:08.658Z,1011.19
2016-08-05T09:20:08.653Z,1011.24
2016-08-05T09:21:08.626Z,1011.21
2016-08-05T09:22:08.610Z,1011.2
2016-08-05T09:23:08.596Z,1011.22
2016-08-05T09:24:08.580Z,1011.16
2016-08-05T09:25:08.564Z,1011.19
2016-08-05T09:26:08.549Z,1011.23
2016-08-05T09:27:08.532Z,1011.18
2016-08-05T09:28:08.516Z,1011.16
2016-08-05T09:29:08.504Z,1011.13
2016-08-05T09:30:08.486Z,1011.13
2016-08-05T09:31:08.472Z,1011.12
2016-08-05T09:32:08.451Z,1011.15
2016-08-05T09:33:08.443Z,1011.15
2016-08-05T09:34:08.422Z,1011.14
2016-08-05T09:35:08.406Z,1011.14
2016-08-05T09:36:08.391Z,1011.13
2016-08-05T09:37:08.374Z,1011.17
2016-08-05T09:38:08.358Z,1011.23
2016-08-05T09:39:08.349Z,1011.22
2016-08-05T09:40:08.325Z,1011.23
2016-08-05T09:41:08.310Z,1011.26
2016-08-05T09:42:08.297Z,1011.25
2016-08-05T09:43:08.281Z,1011.21
2016-08-05T09:44:08.265Z,1011.24
2016-08-05T09:45:08.253Z,1011.23
2016-08-05T09:46:08.234Z,1011.27
2016-08-05T09:47:08.221Z,1011.26
2016-08-05T09:48:08.204Z,1011.28
2016-08-05T09:49:08.189Z,1011.28
2016-08-05T09:50:08.170Z,1011.26
2016-08-05T09:51:08.155Z,1011.26
2016-08-05T09:52:08.136Z,1011.27
2016-08-05T09:53:08.121Z,1011.26
2016-08-05T09:54:08.108Z,1011.26
2016-08-05T09:55:08.092Z,1011.31
2016-08-05T09:56:08.074Z,1011.3
2016-08-05T09:57:08.056Z,1011.32
2016-08-05T09:58:08.042Z,1011.26
2016-08-05T09:59:08.026Z,1011.32
2016-08-05T10:00:08.013Z,1011.23
2016-08-05T10:01:07.998Z,1011.25
2016-08-05T10:02:07.976Z,1011.26
2016-08-05T10:03:07.967Z,1011.24
2016-08-05T10:04:07.946Z,1011.26
2016-08-05T10:05:07.935Z,1011.27
2016-08-05T10:06:07.914Z,1011.24
2016-08-05T10:07:07.898Z,1011.23
2016-08-05T10:08:07.882Z,1011.25
2016-08-05T10:09:07.864Z,1011.35
2016-08-05T10:10:07.852Z,1011.25
2016-08-05T10:11:07.836Z,1011.29
2016-08-05T10:12:07.817Z,1011.31
2016-08-05T10:13:07.803Z,1011.27
2016-08-05T10:14:07.783Z,1011.25
2016-08-05T10:15:07.770Z,1011.25
2016-08-05T10:16:07.755Z,1011.25
2016-08-05T10:17:07.736Z,1011.24
2016-08-05T10:18:07.723Z,1011.29
2016-08-05T10:19:07.711Z,1011.23
2016-08-05T10:20:07.689Z,1011.27
2016-08-05T10:21:07.677Z,1011.3
2016-08-05T10:22:07.655Z,1011.22
2016-08-05T10:23:07.639Z,1011.27
2016-08-05T10:24:07.623Z,1011.25
2016-08-05T10:25:07.610Z,1011.29
2016-08-05T10:26:07.598Z,1011.33
2016-08-05T10:27:07.578Z,1011.3
2016-08-05T10:28:07.558Z,1011.29
2016-08-05T10:29:07.545Z,1011.32
2016-08-05T10:30:07.528Z,1011.37
2016-08-05T10:31:07.514Z,1011.28
2016-08-05T10:32:07.496Z,1011.29
2016-08-05T10:33:07.492Z,1011.32
2016-08-05T10:34:07.465Z,1011.28
2016-08-05T10:35:07.446Z,1011.28
2016-08-05T10:36:07.433Z,1011.26
2016-08-05T10:37:07.413Z,1011.29
2016-08-05T10:38:07.402Z,1011.29
2016-08-05T10:39:07.384Z,1011.33
2016-08-05T10:40:07.371Z,1011.3
2016-08-05T10:41:07.352Z,1011.3
2016-08-05T10:42:07.340Z,1011.37
2016-08-05T10:43:07.318Z,1011.37
2016-08-05T10:44:07.308Z,1011.39
2016-08-05T10:45:07.290Z,1011.36
2016-08-05T10:46:07.281Z,1011.34
2016-08-05T10:47:07.255Z,1011.38
2016-08-05T10:48:07.247Z,1011.39
2016-08-05T10:49:07.222Z,1011.45
2016-08-05T10:50:07.206Z,1011.45
2016-08-05T10:51:07.190Z,1011.45
2016-08-05T10:52:07.174Z,1011.48
2016-08-05T10:53:07.160Z,1011.49
2016-08-05T10:54:07.144Z,1011.51
2016-08-05T10:55:07.126Z,1011.49
2016-08-05T10:56:07.111Z,1011.46
2016-08-05T10:57:07.093Z,1011.52
2016-08-05T10:58:07.083Z,1011.53
2016-08-05T10:59:07.063Z,1011.51
2016-08-05T11:00:07.048Z,1011.51
2016-08-05T11:01:07.038Z,1011.54
2016-08-05T11:02:07.016Z,1011.51
2016-08-05T11:03:07.000Z,1011.57
2016-08-05T11:04:06.982Z,1011.49
2016-08-05T11:05:06.966Z,1011.56
2016-08-05T11:06:06.955Z,1011.53
2016-08-05T11:07:06.942Z,1011.52
2016-08-05T11:08:06.925Z,1011.49
2016-08-05T11:09:06.912Z,1011.45
2016-08-05T11:10:06.886Z,1011.55
2016-08-05T11:11:06.875Z,1011.53
2016-08-05T11:12:06.854Z,1011.52
2016-08-05T11:13:06.853Z,1011.53
2016-08-05T11:14:06.821Z,1011.54
2016-08-05T11:15:06.816Z,1011.6
2016-08-05T11:16:06.793Z,1011.56
2016-08-05T11:17:06.785Z,1011.59
2016-08-05T11:18:06.762Z,1011.57
2016-08-05T11:19:06.740Z,1011.57
2016-08-05T11:20:06.728Z,1011.57
2016-08-05T11:21:06.715Z,1011.57
2016-08-05T11:22:06.695Z,1011.58
2016-08-05T11:23:06.689Z,1011.56
2016-08-05T11:24:06.666Z,1011.58
2016-08-05T11:25:06.655Z,1011.59
2016-08-05T11:26:06.631Z,1011.52
2016-08-05T11:27:06.617Z,1011.5
2016-08-05T11:28:06.609Z,1011.56
2016-08-05T11:29:06.583Z,1011.53
2016-08-05T11:30:06.575Z,1011.46
2016-08-05T11:31:06.557Z,1011.54
2016-08-05T11:32:06.546Z,1011.5
2016-08-05T11:33:06.529Z,1011.47
2016-08-05T11:34:06.508Z,1011.45
2016-08-05T11:35:06.495Z,1011.44
2016-08-05T11:36:06.474Z,1011.47
2016-08-05T11:37:06.462Z,1011.42
2016-08-05T11:38:06.451Z,1011.44
2016-08-05T11:39:06.433Z,1011.5
2016-08-05T11:40:06.410Z,1011.44
2016-08-05T11:41:06.396Z,1011.47
2016-08-05T11:42:06.391Z,1011.44
2016-08-05T11:43:06.363Z,1011.45
2016-08-05T11:44:06.355Z,1011.39
2016-08-05T11:45:06.333Z,1011.4
2016-08-05T11:46:06.326Z,1011.42
2016-08-05T11:47:06.306Z,1011.42
2016-08-05T11:48:06.298Z,1011.31
2016-08-05T11:49:06.272Z,1011.39
2016-08-05T11:50:06.260Z,1011.42
2016-08-05T11:51:06.241Z,1011.41
2016-08-05T11:52:06.221Z,1011.39
2016-08-05T11:53:06.215Z,1011.42
2016-08-05T11:54:06.203Z,1011.47
2016-08-05T11:55:06.187Z,1011.39
2016-08-05T11:56:06.161Z,1011.42
2016-08-05T11:58:06.136Z,1011.41
2016-08-05T11:59:06.120Z,1011.4
2016-08-05T12:00:06.100Z,1011.32
2016-08-05T12:01:06.093Z,1011.35
2016-08-05T12:02:06.077Z,1011.38
2016-08-05T12:03:06.055Z,1011.38
2016-08-05T12:04:06.040Z,1011.35
2016-08-05T12:05:06.026Z,1011.32
2016-08-05T12:06:06.006Z,1011.32
2016-08-05T12:07:05.991Z,1011.36
2016-08-05T12:08:05.979Z,1011.39
2016-08-05T12:09:05.960Z,1011.4
2016-08-05T12:10:05.945Z,1011.4
2016-08-05T12:11:05.929Z,1011.37
2016-08-05T12:13:05.899Z,1011.39
2016-08-05T12:14:05.884Z,1011.43
2016-08-05T12:15:05.871Z,1011.45